ADDS METAR Data INFO
IDs: Format: Raw Decoded Include TAF

Data at: 0937 UTC 17 Oct 2017

PFWS 170856Z AUTO 12007KT 10SM SCT048 OVC065 01/00 A2954 RMK AO2 RAB02E25 SLP009 P0000 60000 T00060000 400561006 58028 FZRANO
PFWS 170756Z AUTO 12006KT 10SM FEW023 BKN050 OVC080 01/00 A2958 RMK AO2 RAE25 SLP021 P0000 T00060000 FZRANO
PFWS 170726Z AUTO 13006KT 10SM OVC029 02/00 A2959 RMK AO2 RAE25 P0000 FZRANO
PFWS 170656Z AUTO 13007KT 10SM -RA BKN035 OVC055 02/00 A2960 RMK AO2 RAB19 SLP031 P0000 T00170000 FZRANO
PFWS 170556Z AUTO 13007KT 10SM FEW025 BKN080 01/M01 A2963 RMK AO2 SLP038 T00111011 10056 20006 58018 FZRANO
PFWS 170520Z AUTO 12007KT 10SM SCT025 BKN048 BKN070 01/M01 A2964 RMK AO2 FZRANO
PFWS 170456Z AUTO 11005KT 10SM BKN025 OVC048 01/M01 A2964 RMK AO2 SLP044 T00111006 FZRANO
PFWS 170449Z AUTO 12006KT 10SM BKN025 OVC048 02/M01 A2965 RMK AO2 FZRANO
PFWS 170356Z AUTO 12004KT 10SM SCT055 BKN070 OVC085 03/00 A2966 RMK AO2 SLP050 T00280000
PFWS 170256Z AUTO 00000KT 10SM OVC100 03/00 A2968 RMK AO2 SLP056 T00330000 58014
PFWS 170156Z AUTO 00000KT 10SM CLR 04/01 A2969 RMK AO2 SLP061 T00390006
PFWS 170056Z AUTO 26003KT 10SM CLR 06/00 A2971 RMK AO2 SLP067 T00560000
PFWS 162356Z AUTO 32004KT 10SM CLR 04/02 A2972 RMK AO2 SLP071 T00440022 10050 21006 58006
PFWS 162256Z AUTO 00000KT 10SM CLR 05/02 A2973 RMK AO2 SLP073 T00500022
PFWS 162214Z AUTO 30004KT 10SM BKN011 04/02 A2974 RMK AO2
PFWS 162156Z AUTO 00000KT 10SM SCT009 04/02 A2974 RMK AO2 SLP076 T00390022
PFWS 162114Z AUTO 00000KT 10SM SCT003 03/02 A2974 RMK AO2
PFWS 162105Z AUTO 00000KT 10SM BKN003 04/03 A2974 RMK AO2
PFWS 162056Z AUTO 00000KT 10SM SCT003 BKN033 03/02 A2974 RMK AO2 SLP076 T00330022 51011
PFWS 162018Z AUTO 21003KT 10SM SCT003 OVC024 01/01 A2974 RMK AO2 FZRANO
PFWS 162011Z AUTO 22003KT 2SM BR BKN003 OVC026 01/01 A2973 RMK AO2 VIS 1/2V5 FZRANO
PFWS 162009Z AUTO 22003KT 1SM BR BKN003 OVC026 01/01 A2973 RMK AO2 VIS 1/4V5 FZRANO
PFWS 161956Z AUTO 23003KT 1/4SM FG BKN003 OVC026 01/00 A2973 RMK AO2 SLP074 T00060000 FZRANO
PFWS 161856Z AUTO 00000KT M1/4SM FG OVC003 00/00 A2972 RMK AO2 SLP070 T00000000 FZRANO
PFWS 161756Z AUTO 02004KT 1/4SM FZFG OVC003 M01/M01 A2971 RMK AO2 SLP065 T10061006 10028 21006 51011 FZRANO
PFWS 161746Z AUTO 01005KT 1/4SM FG OVC003 00/M01 A2970 RMK AO2 FZRANO
PFWS 161738Z AUTO 36006KT 1/2SM FZFG OVC003 M01/M01 A2970 RMK AO2 FZRANO
PFWS 161736Z AUTO 36006KT 1SM BR OVC003 M01/M01 A2970 RMK AO2 FZRANO
PFWS 161705Z AUTO 35006KT 10SM BKN003 00/M01 A2970 RMK AO2 FZRANO
PFWS 161656Z AUTO 33005KT 10SM FEW005 00/M01 A2970 RMK AO2 SLP063 T00001006 FZRANO
PFWS 161556Z AUTO 33005KT 10SM CLR 00/M01 A2969 RMK AO2 SLP058 T00001006 FZRANO
PFWS 161456Z AUTO 34004KT 10SM CLR 00/M01 A2967 RMK AO2 SLP054 T00001006 53004 FZRANO
PFWS 161356Z AUTO 29004KT 10SM CLR 02/01 A2966 RMK AO2 SLP051 T00220011 FZRANO
PFWS 161256Z AUTO 29005KT 10SM CLR 02/01 A2966 RMK AO2 SLP049 T00220006 FZRANO
PFWS 161156Z AUTO 28005KT 10SM CLR 02/01 A2966 RMK AO2 SLP050 60000 70002 T00170011 10039 20017 51006 FZRANO
PFWS 161056Z AUTO 25004KT 10SM FEW046 02/01 A2965 RMK AO2 SLP048 T00220006 FZRANO
PFWS 160956Z AUTO 27007KT 10SM SCT055 02/01 A2965 RMK AO2 SLP047 T00220011 FZRANO
PFWS 160856Z AUTO 26004KT 10SM FEW024 02/01 A2964 RMK AO2 SLP044 60000 T00220006 400610000 53007 FZRANO
PFWS 160756Z AUTO 30006KT 10SM BKN039 04/02 A2963 RMK AO2 SLP041 T00390017
PFWS 160656Z AUTO 28006KT 10SM FEW030 OVC065 03/02 A2963 RMK AO2 RAE24 SLP039 P0000 T00330017
PFWS 160608Z AUTO 24004KT 10SM -RA FEW024 BKN036 OVC044 03/03 A2963 RMK AO2 P0000
PFWS 160556Z AUTO 27004KT 10SM -RA BKN024 OVC038 04/03 A2962 RMK AO2 RAB54 SLP037 P0000 60000 T00390028 10061 20033 52005
PFWS 160508Z AUTO 30003KT 10SM SCT027 OVC038 04/03 A2961 RMK AO2
PFWS 160456Z AUTO 29003KT 10SM BKN027 BKN042 OVC060 03/02 A2962 RMK AO2 RAE12 SLP035 P0000 T00330022
PFWS 160426Z AUTO 29004KT 10SM FEW020 BKN031 OVC060 04/03 A2961 RMK AO2 RAE12 P0000
PFWS 160356Z AUTO 27009KT 7SM RA BKN018 OVC029 04/03 A2961 RMK AO2 RAB00E24B53 SLP033 P0000 T00440028
PFWS 160337Z AUTO 24006KT 10SM SCT020 BKN029 BKN037 04/02 A2961 RMK AO2 RAB00E24 P0000
PFWS 160321Z AUTO 25007KT 10SM -RA FEW017 BKN030 BKN037 04/03 A2961 RMK AO2 RAB00 P0000
PFWS 160256Z AUTO 21003KT 10SM BKN021 BKN028 OVC043 04/03 A2961 RMK AO2 SLP031 60000 T00440033 56002
PFWS 160211Z AUTO 26005KT 10SM BKN023 06/03 A2960 RMK AO2
PFWS 160156Z AUTO 25006KT 10SM FEW016 SCT027 BKN037 06/03 A2961 RMK AO2 SLP032 T00560028
PFWS 160128Z AUTO 26004KT 10SM FEW023 BKN030 06/03 A2961 RMK AO2
PFWS 160056Z AUTO 29004KT 10SM FEW011 OVC030 06/03 A2961 RMK AO2 RAB05E17 SLP034 P0000 T00560033
PFWS 152356Z AUTO 30005KT 10SM FEW008 OVC036 05/03 A2961 RMK AO2 SLP035 60002 T00500033 10050 20011 58002
PFWS 152343Z AUTO 31005KT 10SM FEW006 SCT022 OVC040 05/04 A2961 RMK AO2
PFWS 152319Z AUTO 33005KT 10SM SCT008 BKN022 OVC044 05/04 A2962 RMK AO2
PFWS 152256Z AUTO 31007KT 10SM SCT005 BKN009 OVC019 04/04 A2962 RMK AO2 RAB16E43 SLP037 P0000 T00440039
PFWS 152253Z AUTO 32005KT 9SM SCT005 BKN009 OVC019 04/04 A2962 RMK AO2 RAB16E43 P0000
PFWS 152237Z AUTO 31007KT 3SM -RA BR BKN005 BKN010 OVC013 04/04 A2962 RMK AO2 RAB16 CIG 003V007 P0000
PFWS 152228Z AUTO 31005KT 1 1/2SM -RA BR SCT003 BKN008 OVC012 04/04 A2962 RMK AO2 RAB16 CIG 005V011 P0000
PFWS 152221Z AUTO 31005KT 2SM -RA BR BKN005 BKN010 OVC020 04/04 A2962 RMK AO2 RAB16 CIG 003V008 P0000
PFWS 152210Z AUTO 31005KT 7SM BKN008 BKN013 OVC022 05/04 A2962 RMK AO2 CIG 006V012
PFWS 152156Z AUTO 25005KT 10SM FEW005 OVC022 04/04 A2962 RMK AO2 RAE42 SLP036 P0001 T00440039